sensor_id;sensor_type;location;lat;lon;timestamp;pressure;altitude;pressure_sealevel;temperature;humidity
66021;BME280;52789;59.980;30.346;2022-10-31T00:01:59;100823.66;;;0.64;61.53
66021;BME280;52789;59.980;30.346;2022-10-31T00:04:25;100830.88;;;0.60;61.25
66021;BME280;52789;59.980;30.346;2022-10-31T00:06:50;100840.03;;;0.67;61.28
66021;BME280;52789;59.980;30.346;2022-10-31T00:09:16;100835.09;;;0.63;61.54
66021;BME280;52789;59.980;30.346;2022-10-31T00:11:41;100855.22;;;0.62;61.56
66021;BME280;52789;59.980;30.346;2022-10-31T00:14:09;100867.38;;;0.63;61.90
66021;BME280;52789;59.980;30.346;2022-10-31T00:16:34;100857.00;;;0.61;61.79
66021;BME280;52789;59.980;30.346;2022-10-31T00:19:03;100854.91;;;0.52;62.18
66021;BME280;52789;59.980;30.346;2022-10-31T00:21:29;100877.13;;;0.61;62.12
66021;BME280;52789;59.980;30.346;2022-10-31T00:23:56;100867.66;;;0.58;62.42
66021;BME280;52789;59.980;30.346;2022-10-31T00:26:22;100874.69;;;0.58;62.52
66021;BME280;52789;59.980;30.346;2022-10-31T00:28:48;100881.69;;;0.57;62.53
66021;BME280;52789;59.980;30.346;2022-10-31T00:31:14;100889.63;;;0.56;62.20
66021;BME280;52789;59.980;30.346;2022-10-31T00:33:40;100877.66;;;0.52;62.90
66021;BME280;52789;59.980;30.346;2022-10-31T00:36:07;100873.25;;;0.52;63.29
66021;BME280;52789;59.980;30.346;2022-10-31T00:38:33;100876.72;;;0.53;63.19
66021;BME280;52789;59.980;30.346;2022-10-31T00:40:58;100888.53;;;0.46;63.65
66021;BME280;52789;59.980;30.346;2022-10-31T00:43:24;100890.41;;;0.44;63.94
66021;BME280;52789;59.980;30.346;2022-10-31T00:45:50;100895.66;;;0.44;64.15
66021;BME280;52789;59.980;30.346;2022-10-31T00:48:16;100869.28;;;0.18;64.42
66021;BME280;52789;59.980;30.346;2022-10-31T00:50:41;100901.94;;;0.41;64.73
66021;BME280;52789;59.980;30.346;2022-10-31T00:53:08;100921.84;;;0.44;64.98
66021;BME280;52789;59.980;30.346;2022-10-31T00:55:33;100907.25;;;0.40;64.70
66021;BME280;52789;59.980;30.346;2022-10-31T00:57:59;100921.19;;;0.40;65.45
66021;BME280;52789;59.980;30.346;2022-10-31T01:00:25;100914.56;;;0.35;65.45
66021;BME280;52789;59.980;30.346;2022-10-31T01:02:51;100937.13;;;0.37;65.45
66021;BME280;52789;59.980;30.346;2022-10-31T01:05:17;100923.25;;;0.35;65.83
66021;BME280;52789;59.980;30.346;2022-10-31T01:07:42;100925.97;;;0.34;65.82
66021;BME280;52789;59.980;30.346;2022-10-31T01:10:09;100946.75;;;0.37;65.60
66021;BME280;52789;59.980;30.346;2022-10-31T01:12:36;100954.50;;;0.38;65.71
66021;BME280;52789;59.980;30.346;2022-10-31T01:15:03;100959.00;;;0.36;66.01
66021;BME280;52789;59.980;30.346;2022-10-31T01:17:29;100953.22;;;0.31;65.79
66021;BME280;52789;59.980;30.346;2022-10-31T01:19:56;100965.28;;;0.34;66.67
66021;BME280;52789;59.980;30.346;2022-10-31T01:22:22;100913.28;;;-0.03;67.06
66021;BME280;52789;59.980;30.346;2022-10-31T01:24:48;100970.28;;;0.22;66.95
66021;BME280;52789;59.980;30.346;2022-10-31T01:27:13;100941.94;;;0.15;67.23
66021;BME280;52789;59.980;30.346;2022-10-31T01:29:39;100980.50;;;0.27;67.42
66021;BME280;52789;59.980;30.346;2022-10-31T01:32:04;100968.53;;;0.23;67.67
66021;BME280;52789;59.980;30.346;2022-10-31T01:34:30;100963.75;;;0.15;67.38
66021;BME280;52789;59.980;30.346;2022-10-31T01:36:55;100976.56;;;0.20;68.13
66021;BME280;52789;59.980;30.346;2022-10-31T01:39:21;100978.25;;;0.21;68.21
66021;BME280;52789;59.980;30.346;2022-10-31T01:41:49;100994.06;;;0.19;68.10
66021;BME280;52789;59.980;30.346;2022-10-31T01:49:15;100995.34;;;0.12;68.56
66021;BME280;52789;59.980;30.346;2022-10-31T01:51:46;101000.59;;;0.12;68.96
66021;BME280;52789;59.980;30.346;2022-10-31T01:54:16;100999.84;;;0.10;68.95
66021;BME280;52789;59.980;30.346;2022-10-31T01:56:45;101020.69;;;0.12;68.98
66021;BME280;52789;59.980;30.346;2022-10-31T01:59:16;101016.50;;;0.09;68.61
66021;BME280;52789;59.980;30.346;2022-10-31T02:01:43;101018.34;;;0.07;69.11
66021;BME280;52789;59.980;30.346;2022-10-31T02:04:08;101020.22;;;0.05;69.63
66021;BME280;52789;59.980;30.346;2022-10-31T02:06:51;101035.75;;;0.08;69.37
66021;BME280;52789;59.980;30.346;2022-10-31T02:09:19;101031.34;;;0.09;69.32
66021;BME280;52789;59.980;30.346;2022-10-31T02:11:51;101033.72;;;0.13;69.32
66021;BME280;52789;59.980;30.346;2022-10-31T02:14:18;101037.44;;;0.09;69.48
66021;BME280;52789;59.980;30.346;2022-10-31T02:16:46;101049.41;;;0.13;69.45
66021;BME280;52789;59.980;30.346;2022-10-31T02:19:40;101041.84;;;0.09;70.13
66021;BME280;52789;59.980;30.346;2022-10-31T02:22:16;101050.81;;;0.05;69.69
66021;BME280;52789;59.980;30.346;2022-10-31T02:25:01;101055.03;;;0.07;69.98
66021;BME280;52789;59.980;30.346;2022-10-31T02:33:53;101056.13;;;0.03;71.16
66021;BME280;52789;59.980;30.346;2022-10-31T02:36:32;101049.63;;;-0.06;70.68
66021;BME280;52789;59.980;30.346;2022-10-31T02:39:34;101054.19;;;-0.09;70.83
66021;BME280;52789;59.980;30.346;2022-10-31T02:42:20;101074.69;;;-0.02;71.62
66021;BME280;52789;59.980;30.346;2022-10-31T02:45:00;101087.13;;;-0.05;71.45
66021;BME280;52789;59.980;30.346;2022-10-31T02:47:34;101075.13;;;-0.09;71.78
66021;BME280;52789;59.980;30.346;2022-10-31T02:50:11;101094.22;;;-0.07;72.10
66021;BME280;52789;59.980;30.346;2022-10-31T02:52:38;101094.22;;;-0.07;71.82
66021;BME280;52789;59.980;30.346;2022-10-31T02:57:48;101090.44;;;-0.17;72.41
66021;BME280;52789;59.980;30.346;2022-10-31T03:00:15;101096.59;;;-0.18;72.62
66021;BME280;52789;59.980;30.346;2022-10-31T03:02:59;101108.59;;;-0.14;73.42
66021;BME280;52789;59.980;30.346;2022-10-31T03:11:07;101129.72;;;-0.17;73.47
66021;BME280;52789;59.980;30.346;2022-10-31T03:13:57;101128.19;;;-0.21;73.48
66021;BME280;52789;59.980;30.346;2022-10-31T03:16:47;101112.97;;;-0.31;73.38
66021;BME280;52789;59.980;30.346;2022-10-31T03:19:20;101143.91;;;-0.21;73.42
66021;BME280;52789;59.980;30.346;2022-10-31T03:21:56;101149.13;;;-0.21;74.11
66021;BME280;52789;59.980;30.346;2022-10-31T03:24:27;101158.94;;;-0.25;74.30
66021;BME280;52789;59.980;30.346;2022-10-31T03:26:57;101158.94;;;-0.25;74.47
66021;BME280;52789;59.980;30.346;2022-10-31T03:29:28;101150.63;;;-0.33;74.85
66021;BME280;52789;59.980;30.346;2022-10-31T03:32:04;101141.44;;;-0.40;74.85
66021;BME280;52789;59.980;30.346;2022-10-31T03:34:31;101151.81;;;-0.39;74.83
66021;BME280;52789;59.980;30.346;2022-10-31T03:37:00;101167.84;;;-0.29;74.99
66021;BME280;52789;59.980;30.346;2022-10-31T03:39:28;101167.19;;;-0.33;75.31
66021;BME280;52789;59.980;30.346;2022-10-31T03:41:59;101179.25;;;-0.30;75.17
66021;BME280;52789;59.980;30.346;2022-10-31T03:44:27;101177.47;;;-0.29;75.66
66021;BME280;52789;59.980;30.346;2022-10-31T03:46:54;101172.75;;;-0.39;76.10
66021;BME280;52789;59.980;30.346;2022-10-31T03:49:20;101175.97;;;-0.34;75.59
66021;BME280;52789;59.980;30.346;2022-10-31T03:54:32;101165.16;;;-0.43;75.72
66021;BME280;52789;59.980;30.346;2022-10-31T03:57:06;101175.03;;;-0.33;76.04
66021;BME280;52789;59.980;30.346;2022-10-31T03:59:36;101177.66;;;-0.33;76.11
66021;BME280;52789;59.980;30.346;2022-10-31T04:02:12;101173.44;;;-0.35;75.77
66021;BME280;52789;59.980;30.346;2022-10-31T04:04:40;101171.56;;;-0.33;75.92
66021;BME280;52789;59.980;30.346;2022-10-31T04:07:07;101182.72;;;-0.29;75.94
66021;BME280;52789;59.980;30.346;2022-10-31T04:09:36;101179.34;;;-0.32;76.12
66021;BME280;52789;59.980;30.346;2022-10-31T04:12:06;101185.50;;;-0.33;76.05
66021;BME280;52789;59.980;30.346;2022-10-31T04:14:46;101175.38;;;-0.39;76.19
66021;BME280;52789;59.980;30.346;2022-10-31T04:17:13;101187.94;;;-0.29;75.95
66021;BME280;52789;59.980;30.346;2022-10-31T04:19:42;101193.34;;;-0.33;76.19
66021;BME280;52789;59.980;30.346;2022-10-31T04:22:07;101192.41;;;-0.32;76.08
66021;BME280;52789;59.980;30.346;2022-10-31T04:24:33;101182.38;;;-0.39;76.22
66021;BME280;52789;59.980;30.346;2022-10-31T04:26:58;101200.28;;;-0.32;76.27
66021;BME280;52789;59.980;30.346;2022-10-31T04:29:24;101202.13;;;-0.34;76.23
66021;BME280;52789;59.980;30.346;2022-10-31T04:31:49;101202.03;;;-0.32;76.29
66021;BME280;52789;59.980;30.346;2022-10-31T04:34:15;101201.28;;;-0.34;76.19
66021;BME280;52789;59.980;30.346;2022-10-31T04:36:40;101195.38;;;-0.38;76.32
66021;BME280;52789;59.980;30.346;2022-10-31T04:39:06;101197.06;;;-0.37;76.27
66021;BME280;52789;59.980;30.346;2022-10-31T04:41:31;101198.00;;;-0.38;76.42
66021;BME280;52789;59.980;30.346;2022-10-31T04:43:57;101196.22;;;-0.37;76.90
66021;BME280;52789;59.980;30.346;2022-10-31T04:46:22;101205.00;;;-0.38;77.39
66021;BME280;52789;59.980;30.346;2022-10-31T04:48:48;101207.25;;;-0.48;77.57
66021;BME280;52789;59.980;30.346;2022-10-31T04:51:14;101208.72;;;-0.42;77.38
66021;BME280;52789;59.980;30.346;2022-10-31T04:53:39;101202.03;;;-0.48;77.43
66021;BME280;52789;59.980;30.346;2022-10-31T04:56:05;101201.09;;;-0.47;77.37
66021;BME280;52789;59.980;30.346;2022-10-31T04:58:30;101209.13;;;-0.50;77.97
66021;BME280;52789;59.980;30.346;2022-10-31T05:00:56;101223.56;;;-0.43;78.28
66021;BME280;52789;59.980;30.346;2022-10-31T05:03:22;101208.53;;;-0.55;77.89
66021;BME280;52789;59.980;30.346;2022-10-31T05:05:47;101237.41;;;-0.41;77.74
66021;BME280;52789;59.980;30.346;2022-10-31T05:08:13;101229.13;;;-0.49;78.03
66021;BME280;52789;59.980;30.346;2022-10-31T05:10:44;101238.75;;;-0.49;78.22
66021;BME280;52789;59.980;30.346;2022-10-31T05:13:10;101253.28;;;-0.44;78.38
66021;BME280;52789;59.980;30.346;2022-10-31T05:15:36;101245.00;;;-0.52;77.93
66021;BME280;52789;59.980;30.346;2022-10-31T05:18:01;101256.81;;;-0.45;77.92
66021;BME280;52789;59.980;30.346;2022-10-31T05:20:29;101268.22;;;-0.46;77.89
66021;BME280;52789;59.980;30.346;2022-10-31T05:22:56;101267.38;;;-0.46;78.45
66021;BME280;52789;59.980;30.346;2022-10-31T05:25:24;101278.59;;;-0.44;78.59
66021;BME280;52789;59.980;30.346;2022-10-31T05:27:51;101288.22;;;-0.45;78.21
66021;BME280;52789;59.980;30.346;2022-10-31T05:30:22;101283.16;;;-0.48;78.42
66021;BME280;52789;59.980;30.346;2022-10-31T05:32:52;101294.63;;;-0.50;78.42
66021;BME280;52789;59.980;30.346;2022-10-31T05:35:29;101301.53;;;-0.49;78.55
66021;BME280;52789;59.980;30.346;2022-10-31T05:37:55;101283.63;;;-0.57;78.38
66021;BME280;52789;59.980;30.346;2022-10-31T05:40:21;101309.31;;;-0.48;78.57
66021;BME280;52789;59.980;30.346;2022-10-31T05:42:47;101305.00;;;-0.49;78.79
66021;BME280;52789;59.980;30.346;2022-10-31T05:45:16;101310.91;;;-0.45;78.55
66021;BME280;52789;59.980;30.346;2022-10-31T05:47:49;101299.78;;;-0.49;78.63
66021;BME280;52789;59.980;30.346;2022-10-31T05:50:15;101295.47;;;-0.50;78.70
66021;BME280;52789;59.980;30.346;2022-10-31T05:52:40;101304.75;;;-0.44;78.10
66021;BME280;52789;59.980;30.346;2022-10-31T05:55:06;101276.69;;;-0.58;78.68
66021;BME280;52789;59.980;30.346;2022-10-31T05:57:32;101295.81;;;-0.40;78.86
66021;BME280;52789;59.980;30.346;2022-10-31T05:59:58;101300.97;;;-0.39;78.66
66021;BME280;52789;59.980;30.346;2022-10-31T06:02:24;101303.59;;;-0.39;78.95
66021;BME280;52789;59.980;30.346;2022-10-31T06:04:53;101285.75;;;-0.48;79.03
66021;BME280;52789;59.980;30.346;2022-10-31T06:07:18;101312.72;;;-0.30;78.79
66021;BME280;52789;59.980;30.346;2022-10-31T06:09:44;101322.22;;;-0.27;78.87
66021;BME280;52789;59.980;30.346;2022-10-31T06:12:11;101321.38;;;-0.28;78.66
66021;BME280;52789;59.980;30.346;2022-10-31T06:14:37;101317.84;;;-0.27;78.75
66021;BME280;52789;59.980;30.346;2022-10-31T06:17:02;101334.91;;;-0.20;78.71
66021;BME280;52789;59.980;30.346;2022-10-31T06:19:28;101339.63;;;-0.26;78.27
66021;BME280;52789;59.980;30.346;2022-10-31T06:21:53;101335.44;;;-0.13;78.06
66021;BME280;52789;59.980;30.346;2022-10-31T06:24:19;101335.09;;;-0.07;77.77
66021;BME280;52789;59.980;30.346;2022-10-31T06:26:44;101341.00;;;-0.04;77.56
66021;BME280;52789;59.980;30.346;2022-10-31T06:29:10;101331.19;;;0.17;76.47
66021;BME280;52789;59.980;30.346;2022-10-31T06:31:35;101337.31;;;0.34;76.08
66021;BME280;52789;59.980;30.346;2022-10-31T06:34:01;101340.69;;;0.36;75.97
66021;BME280;52789;59.980;30.346;2022-10-31T06:36:26;101326.06;;;0.32;76.05
66021;BME280;52789;59.980;30.346;2022-10-31T06:38:52;101324.00;;;0.21;76.40
66021;BME280;52789;59.980;30.346;2022-10-31T06:41:17;101324.34;;;0.15;77.08
66021;BME280;52789;59.980;30.346;2022-10-31T06:43:46;101349.34;;;0.20;77.29
66021;BME280;52789;59.980;30.346;2022-10-31T06:46:12;101345.81;;;0.21;77.23
66021;BME280;52789;59.980;30.346;2022-10-31T06:48:37;101343.00;;;0.24;77.33
66021;BME280;52789;59.980;30.346;2022-10-31T06:51:03;101331.94;;;0.19;77.54
66021;BME280;52789;59.980;30.346;2022-10-31T06:53:28;101348.63;;;0.34;77.12
66021;BME280;52789;59.980;30.346;2022-10-31T06:55:58;101337.22;;;0.35;77.24
66021;BME280;52789;59.980;30.346;2022-10-31T06:58:23;101348.13;;;0.43;77.09
66021;BME280;52789;59.980;30.346;2022-10-31T07:00:49;101356.56;;;0.48;76.63
66021;BME280;52789;59.980;30.346;2022-10-31T07:03:17;101353.53;;;0.56;76.41
66021;BME280;52789;59.980;30.346;2022-10-31T07:05:43;101360.91;;;0.65;76.35
66021;BME280;52789;59.980;30.346;2022-10-31T07:08:11;101362.41;;;0.53;76.28
66021;BME280;52789;59.980;30.346;2022-10-31T07:10:39;101378.91;;;0.71;76.40
66021;BME280;52789;59.980;30.346;2022-10-31T07:13:12;101380.44;;;0.75;76.33
66021;BME280;52789;59.980;30.346;2022-10-31T07:15:40;101382.53;;;0.84;76.23
66021;BME280;52789;59.980;30.346;2022-10-31T07:18:09;101377.47;;;0.81;75.60
66021;BME280;52789;59.980;30.346;2022-10-31T07:20:35;101388.03;;;0.96;74.97
66021;BME280;52789;59.980;30.346;2022-10-31T07:23:05;101395.47;;;1.03;74.87
66021;BME280;52789;59.980;30.346;2022-10-31T07:25:30;101395.22;;;1.08;74.86
66021;BME280;52789;59.980;30.346;2022-10-31T07:27:56;101383.19;;;1.04;74.70
66021;BME280;52789;59.980;30.346;2022-10-31T07:30:22;101393.16;;;1.13;74.10
66021;BME280;52789;59.980;30.346;2022-10-31T07:32:48;101428.59;;;1.36;74.30
66021;BME280;52789;59.980;30.346;2022-10-31T07:35:16;101436.03;;;1.43;73.56
66021;BME280;52789;59.980;30.346;2022-10-31T07:37:45;101432.31;;;1.47;73.34
66021;BME280;52789;59.980;30.346;2022-10-31T07:40:11;101434.59;;;1.53;72.95
66021;BME280;52789;59.980;30.346;2022-10-31T07:42:39;101432.38;;;1.62;72.88
66021;BME280;52789;59.980;30.346;2022-10-31T07:45:06;101440.63;;;1.70;72.08
66021;BME280;52789;59.980;30.346;2022-10-31T07:47:45;101448.94;;;1.78;71.79
66021;BME280;52789;59.980;30.346;2022-10-31T07:50:14;101437.69;;;1.76;71.88
66021;BME280;52789;59.980;30.346;2022-10-31T07:52:40;101447.91;;;1.80;71.48
66021;BME280;52789;59.980;30.346;2022-10-31T07:55:06;101451.75;;;1.89;71.81
66021;BME280;52789;59.980;30.346;2022-10-31T07:57:32;101445.53;;;2.06;71.15
66021;BME280;52789;59.980;30.346;2022-10-31T07:59:58;101452.19;;;2.11;70.16
66021;BME280;52789;59.980;30.346;2022-10-31T08:02:24;101433.75;;;1.97;70.29
66021;BME280;52789;59.980;30.346;2022-10-31T08:04:49;101471.72;;;2.07;70.21
66021;BME280;52789;59.980;30.346;2022-10-31T08:07:15;101470.41;;;2.14;70.32
66021;BME280;52789;59.980;30.346;2022-10-31T08:09:41;101468.72;;;2.13;70.58
66021;BME280;52789;59.980;30.346;2022-10-31T08:12:08;101490.59;;;2.28;69.49
66021;BME280;52789;59.980;30.346;2022-10-31T08:14:34;101495.09;;;2.26;69.35
66021;BME280;52789;59.980;30.346;2022-10-31T08:16:59;101499.22;;;2.30;69.38
66021;BME280;52789;59.980;30.346;2022-10-31T08:19:25;101464.56;;;2.09;69.39
66021;BME280;52789;59.980;30.346;2022-10-31T08:21:51;101495.09;;;2.26;69.67
66021;BME280;52789;59.980;30.346;2022-10-31T08:24:17;101501.94;;;2.29;69.67
66021;BME280;52789;59.980;30.346;2022-10-31T08:26:43;101512.31;;;2.32;69.37
66021;BME280;52789;59.980;30.346;2022-10-31T08:29:09;101509.25;;;2.24;69.75
66021;BME280;52789;59.980;30.346;2022-10-31T08:31:34;101510.09;;;2.24;69.72
66021;BME280;52789;59.980;30.346;2022-10-31T08:34:00;101521.09;;;2.16;69.86
66021;BME280;52789;59.980;30.346;2022-10-31T08:36:27;101506.19;;;2.01;69.68
66021;BME280;52789;59.980;30.346;2022-10-31T08:38:52;101523.72;;;2.16;70.28
66021;BME280;52789;59.980;30.346;2022-10-31T08:41:18;101525.09;;;2.08;70.35
66021;BME280;52789;59.980;30.346;2022-10-31T08:43:43;101520.03;;;2.05;71.08
66021;BME280;52789;59.980;30.346;2022-10-31T08:46:09;101529.69;;;2.04;70.67
66021;BME280;52789;59.980;30.346;2022-10-31T08:48:34;101527.41;;;1.98;70.99
66021;BME280;52789;59.980;30.346;2022-10-31T08:50:59;101527.31;;;2.00;70.74
66021;BME280;52789;59.980;30.346;2022-10-31T08:53:26;101529.00;;;2.01;70.41
66021;BME280;52789;59.980;30.346;2022-10-31T08:55:54;101533.75;;;2.10;70.92
66021;BME280;52789;59.980;30.346;2022-10-31T08:58:20;101534.03;;;2.20;70.33
66021;BME280;52789;59.980;30.346;2022-10-31T09:00:49;101542.59;;;2.67;68.68
66021;BME280;52789;59.980;30.346;2022-10-31T09:03:17;101547.44;;;3.30;65.59
66021;BME280;52789;59.980;30.346;2022-10-31T09:05:43;101549.38;;;3.82;63.55
66021;BME280;52789;59.980;30.346;2022-10-31T09:08:09;101531.16;;;3.92;61.62
66021;BME280;52789;59.980;30.346;2022-10-31T09:10:39;101537.19;;;3.67;63.18
66021;BME280;52789;59.980;30.346;2022-10-31T09:13:13;101557.09;;;3.71;62.42
66021;BME280;52789;59.980;30.346;2022-10-31T09:15:40;101563.72;;;3.64;63.11
66021;BME280;52789;59.980;30.346;2022-10-31T09:18:07;101554.19;;;3.49;63.76
66021;BME280;52789;59.980;30.346;2022-10-31T09:20:34;101559.63;;;3.46;64.34
66021;BME280;52789;59.980;30.346;2022-10-31T09:23:20;101558.50;;;3.35;64.92
66021;BME280;52789;59.980;30.346;2022-10-31T09:25:48;101553.47;;;3.18;65.54
66021;BME280;52789;59.980;30.346;2022-10-31T09:28:16;101569.28;;;3.04;65.69
66021;BME280;52789;59.980;30.346;2022-10-31T09:30:46;101555.44;;;2.86;65.86
66021;BME280;52789;59.980;30.346;2022-10-31T09:33:12;101579.03;;;2.88;66.54
66021;BME280;52789;59.980;30.346;2022-10-31T09:35:38;101582.78;;;2.84;66.96
66021;BME280;52789;59.980;30.346;2022-10-31T09:38:06;101593.97;;;2.87;66.62
66021;BME280;52789;59.980;30.346;2022-10-31T09:46:44;101607.22;;;2.71;67.46
66021;BME280;52789;59.980;30.346;2022-10-31T09:52:04;101615.81;;;2.59;67.40
66021;BME280;52789;59.980;30.346;2022-10-31T09:54:33;101615.06;;;2.57;67.39
66021;BME280;52789;59.980;30.346;2022-10-31T09:57:00;101617.72;;;2.71;67.25
66021;BME280;52789;59.980;30.346;2022-10-31T09:59:31;101630.53;;;3.06;66.43
66021;BME280;52789;59.980;30.346;2022-10-31T10:02:16;101638.63;;;3.17;65.15
66021;BME280;52789;59.980;30.346;2022-10-31T10:04:55;101633.66;;;2.98;65.42
66021;BME280;52789;59.980;30.346;2022-10-31T10:07:47;101637.47;;;2.78;66.29
66021;BME280;52789;59.980;30.346;2022-10-31T10:18:49;101638.00;;;2.69;67.08
66021;BME280;52789;59.980;30.346;2022-10-31T10:24:33;101642.72;;;2.78;67.50
66021;BME280;52789;59.980;30.346;2022-10-31T10:27:55;101635.06;;;2.90;66.97
66021;BME280;52789;59.980;30.346;2022-10-31T10:32:50;101648.97;;;2.92;65.54
66021;BME280;52789;59.980;30.346;2022-10-31T10:35:30;101639.53;;;2.88;65.73
66021;BME280;52789;59.980;30.346;2022-10-31T10:40:44;101643.75;;;2.76;65.96
66021;BME280;52789;59.980;30.346;2022-10-31T10:43:37;101647.03;;;2.79;66.66
66021;BME280;52789;59.980;30.346;2022-10-31T10:54:46;101650.66;;;2.93;66.23
66021;BME280;52789;59.980;30.346;2022-10-31T11:00:20;101655.44;;;3.00;65.66
66021;BME280;52789;59.980;30.346;2022-10-31T11:02:46;101651.97;;;3.00;65.73
66021;BME280;52789;59.980;30.346;2022-10-31T11:05:30;101643.50;;;2.95;66.05
66021;BME280;52789;59.980;30.346;2022-10-31T11:07:58;101658.09;;;3.00;65.17
66021;BME280;52789;59.980;30.346;2022-10-31T11:10:23;101652.25;;;2.95;65.60
66021;BME280;52789;59.980;30.346;2022-10-31T11:13:25;101651.03;;;3.01;65.79
66021;BME280;52789;59.980;30.346;2022-10-31T11:16:02;101655.53;;;2.99;66.33
66021;BME280;52789;59.980;30.346;2022-10-31T11:18:31;101663.25;;;3.02;66.07
66021;BME280;52789;59.980;30.346;2022-10-31T11:20:59;101648.13;;;2.91;65.63
66021;BME280;52789;59.980;30.346;2022-10-31T11:23:27;101650.09;;;3.02;65.52
66021;BME280;52789;59.980;30.346;2022-10-31T11:26:02;101644.75;;;3.03;65.60
66021;BME280;52789;59.980;30.346;2022-10-31T11:28:29;101640.59;;;2.99;65.35
66021;BME280;52789;59.980;30.346;2022-10-31T11:30:59;101663.81;;;3.07;65.79
66021;BME280;52789;59.980;30.346;2022-10-31T11:35:57;101648.78;;;3.09;65.63
66021;BME280;52789;59.980;30.346;2022-10-31T11:38:29;101651.22;;;3.12;64.99
66021;BME280;52789;59.980;30.346;2022-10-31T11:41:00;101656.47;;;3.12;65.23
66021;BME280;52789;59.980;30.346;2022-10-31T11:43:31;101647.47;;;3.16;64.92
66021;BME280;52789;59.980;30.346;2022-10-31T11:45:56;101650.50;;;3.24;65.33
66021;BME280;52789;59.980;30.346;2022-10-31T11:48:23;101661.28;;;3.34;64.78
66021;BME280;52789;59.980;30.346;2022-10-31T11:50:59;101654.81;;;3.39;64.32
66021;BME280;52789;59.980;30.346;2022-10-31T11:53:29;101658.56;;;3.35;63.97
66021;BME280;52789;59.980;30.346;2022-10-31T11:56:14;101672.03;;;3.31;64.46
66021;BME280;52789;59.980;30.346;2022-10-31T11:58:41;101643.72;;;3.20;64.69
66021;BME280;52789;59.980;30.346;2022-10-31T12:01:23;101660.34;;;3.35;64.62
66021;BME280;52789;59.980;30.346;2022-10-31T12:04:06;101665.31;;;3.68;63.73
66021;BME280;52789;59.980;30.346;2022-10-31T12:06:37;101653.94;;;3.67;63.06
66021;BME280;52789;59.980;30.346;2022-10-31T12:09:28;101664.56;;;3.80;63.13
66021;BME280;52789;59.980;30.346;2022-10-31T12:14:51;101681.28;;;3.93;63.04
66021;BME280;52789;59.980;30.346;2022-10-31T12:17:25;101668.78;;;3.83;62.73
66021;BME280;52789;59.980;30.346;2022-10-31T12:22:57;101677.00;;;3.78;62.39
66021;BME280;52789;59.980;30.346;2022-10-31T12:37:15;101663.63;;;3.38;63.20
66021;BME280;52789;59.980;30.346;2022-10-31T12:48:04;101685.09;;;3.18;63.39
66021;BME280;52789;59.980;30.346;2022-10-31T12:51:02;101687.50;;;3.07;63.35
66021;BME280;52789;59.980;30.346;2022-10-31T12:56:24;101697.09;;;3.08;63.00
66021;BME280;52789;59.980;30.346;2022-10-31T12:59:03;101693.72;;;3.06;63.19
66021;BME280;52789;59.980;30.346;2022-10-31T13:01:41;101690.13;;;3.07;63.53
66021;BME280;52789;59.980;30.346;2022-10-31T13:04:15;101700.56;;;3.08;64.29
66021;BME280;52789;59.980;30.346;2022-10-31T13:06:53;101698.97;;;3.06;65.83
66021;BME280;52789;59.980;30.346;2022-10-31T13:09:45;101702.72;;;3.02;66.36
66021;BME280;52789;59.980;30.346;2022-10-31T13:12:19;101703.38;;;3.05;66.35
66021;BME280;52789;59.980;30.346;2022-10-31T13:14:52;101715.59;;;3.06;66.35
66021;BME280;52789;59.980;30.346;2022-10-31T13:17:31;101713.72;;;3.08;66.59
66021;BME280;52789;59.980;30.346;2022-10-31T13:22:44;101704.41;;;3.03;66.57
66021;BME280;52789;59.980;30.346;2022-10-31T13:25:26;101713.44;;;2.99;65.58
66021;BME280;52789;59.980;30.346;2022-10-31T13:28:03;101702.91;;;2.99;65.48
66021;BME280;52789;59.980;30.346;2022-10-31T13:30:36;101711.66;;;2.99;64.93
66021;BME280;52789;59.980;30.346;2022-10-31T13:33:39;101713.34;;;3.00;65.02
66021;BME280;52789;59.980;30.346;2022-10-31T13:41:39;101713.63;;;2.96;65.71
66021;BME280;52789;59.980;30.346;2022-10-31T13:44:21;101722.78;;;2.89;66.17
66021;BME280;52789;59.980;30.346;2022-10-31T13:46:52;101703.94;;;2.66;66.04
66021;BME280;52789;59.980;30.346;2022-10-31T13:52:25;101722.94;;;2.71;66.38
66021;BME280;52789;59.980;30.346;2022-10-31T13:54:52;101724.81;;;2.69;66.44
66021;BME280;52789;59.980;30.346;2022-10-31T13:57:37;101733.81;;;2.65;66.94
66021;BME280;52789;59.980;30.346;2022-10-31T14:00:23;101711.41;;;2.58;67.06
66021;BME280;52789;59.980;30.346;2022-10-31T14:02:51;101713.38;;;2.55;66.71
66021;BME280;52789;59.980;30.346;2022-10-31T14:05:26;101728.13;;;2.57;65.65
66021;BME280;52789;59.980;30.346;2022-10-31T14:07:53;101724.75;;;2.55;64.98
66021;BME280;52789;59.980;30.346;2022-10-31T14:10:28;101721.19;;;2.56;64.98
66021;BME280;52789;59.980;30.346;2022-10-31T14:15:51;101717.97;;;2.51;64.59
66021;BME280;52789;59.980;30.346;2022-10-31T14:18:37;101724.75;;;2.55;64.91
66021;BME280;52789;59.980;30.346;2022-10-31T14:23:48;101725.84;;;2.51;65.13
66021;BME280;52789;59.980;30.346;2022-10-31T14:28:51;101726.97;;;2.47;65.22
66021;BME280;52789;59.980;30.346;2022-10-31T14:31:30;101719.09;;;2.47;65.47
66021;BME280;52789;59.980;30.346;2022-10-31T14:34:27;101721.72;;;2.47;65.32
66021;BME280;52789;59.980;30.346;2022-10-31T14:47:51;101720.47;;;2.38;65.95
66021;BME280;52789;59.980;30.346;2022-10-31T14:53:01;101703.56;;;2.27;66.15
66021;BME280;52789;59.980;30.346;2022-10-31T14:55:29;101713.91;;;2.30;66.73
66021;BME280;52789;59.980;30.346;2022-10-31T14:58:06;101717.47;;;2.29;67.27
66021;BME280;52789;59.980;30.346;2022-10-31T15:00:33;101721.22;;;2.25;67.21
66021;BME280;52789;59.980;30.346;2022-10-31T15:03:16;101712.47;;;2.24;67.44
66021;BME280;52789;59.980;30.346;2022-10-31T15:06:10;101703.75;;;2.24;67.09
66021;BME280;52789;59.980;30.346;2022-10-31T15:08:44;101712.66;;;2.21;67.66